sensor_id;sensor_type;location;lat;lon;timestamp;noise_LAeq;noise_LA_min;noise_LA_max;noise_LA01;noise_LA95
18377;Laerm;9315;52.624;13.544;2023-09-12T00:00:48;58.08;37.46;71.47;;
18377;Laerm;9315;52.624;13.544;2023-09-12T00:03:22;55.13;33.41;73.50;;
18377;Laerm;9315;52.624;13.544;2023-09-12T00:05:58;42.30;33.57;55.08;;
18377;Laerm;9315;52.624;13.544;2023-09-12T00:08:26;55.46;35.19;70.59;;
18377;Laerm;9315;52.624;13.544;2023-09-12T00:11:09;53.22;39.44;70.99;;
18377;Laerm;9315;52.624;13.544;2023-09-12T00:13:39;43.40;34.08;51.74;;
18377;Laerm;9315;52.624;13.544;2023-09-12T00:16:08;52.44;36.32;69.85;;
18377;Laerm;9315;52.624;13.544;2023-09-12T00:18:38;53.13;37.25;71.87;;
18377;Laerm;9315;52.624;13.544;2023-09-12T00:21:06;41.72;32.54;49.36;;
18377;Laerm;9315;52.624;13.544;2023-09-12T00:23:33;41.21;35.55;54.50;;
18377;Laerm;9315;52.624;13.544;2023-09-12T00:26:01;53.77;37.54;69.62;;
18377;Laerm;9315;52.624;13.544;2023-09-12T00:28:28;43.82;34.45;57.13;;
18377;Laerm;9315;52.624;13.544;2023-09-12T00:30:55;52.28;36.61;68.77;;
18377;Laerm;9315;52.624;13.544;2023-09-12T00:33:22;59.34;37.77;74.43;;
18377;Laerm;9315;52.624;13.544;2023-09-12T00:35:50;44.80;39.63;50.59;;
18377;Laerm;9315;52.624;13.544;2023-09-12T00:38:17;42.75;37.81;48.70;;
18377;Laerm;9315;52.624;13.544;2023-09-12T00:40:44;41.50;33.68;50.19;;
18377;Laerm;9315;52.624;13.544;2023-09-12T00:43:11;50.80;35.46;67.74;;
18377;Laerm;9315;52.624;13.544;2023-09-12T00:45:38;56.15;38.49;74.01;;
18377;Laerm;9315;52.624;13.544;2023-09-12T00:48:06;45.02;38.41;51.24;;
18377;Laerm;9315;52.624;13.544;2023-09-12T00:50:35;59.00;37.51;76.01;;
18377;Laerm;9315;52.624;13.544;2023-09-12T00:53:03;56.64;40.70;70.87;;
18377;Laerm;9315;52.624;13.544;2023-09-12T00:55:33;56.39;38.16;72.90;;
18377;Laerm;9315;52.624;13.544;2023-09-12T00:58:01;54.95;38.69;71.16;;
18377;Laerm;9315;52.624;13.544;2023-09-12T01:00:29;55.58;38.00;73.11;;
18377;Laerm;9315;52.624;13.544;2023-09-12T01:02:57;56.17;38.49;73.67;;
18377;Laerm;9315;52.624;13.544;2023-09-12T01:05:26;42.40;36.14;50.03;;
18377;Laerm;9315;52.624;13.544;2023-09-12T01:07:53;40.49;34.41;48.95;;
18377;Laerm;9315;52.624;13.544;2023-09-12T01:10:21;44.04;37.37;51.03;;
18377;Laerm;9315;52.624;13.544;2023-09-12T01:12:48;58.09;37.78;72.86;;
18377;Laerm;9315;52.624;13.544;2023-09-12T01:15:15;56.49;39.62;72.41;;
18377;Laerm;9315;52.624;13.544;2023-09-12T01:17:45;43.07;38.28;50.26;;
18377;Laerm;9315;52.624;13.544;2023-09-12T01:20:22;53.72;38.91;70.44;;
18377;Laerm;9315;52.624;13.544;2023-09-12T01:28:55;63.54;38.43;78.20;;
18377;Laerm;9315;52.624;13.544;2023-09-12T01:31:24;55.46;37.06;71.96;;
18377;Laerm;9315;52.624;13.544;2023-09-12T01:33:56;56.62;36.85;73.40;;
18377;Laerm;9315;52.624;13.544;2023-09-12T01:36:24;61.49;39.36;74.29;;
18377;Laerm;9315;52.624;13.544;2023-09-12T01:38:52;41.49;34.10;51.03;;
18377;Laerm;9315;52.624;13.544;2023-09-12T01:41:19;61.00;34.93;76.83;;
18377;Laerm;9315;52.624;13.544;2023-09-12T01:43:47;45.36;38.35;52.52;;
18377;Laerm;9315;52.624;13.544;2023-09-12T01:46:17;58.49;38.33;76.76;;
18377;Laerm;9315;52.624;13.544;2023-09-12T01:48:45;55.67;39.02;75.10;;
18377;Laerm;9315;52.624;13.544;2023-09-12T01:51:14;56.51;39.75;72.74;;
18377;Laerm;9315;52.624;13.544;2023-09-12T01:53:45;60.21;41.11;74.85;;
18377;Laerm;9315;52.624;13.544;2023-09-12T01:56:13;57.64;38.30;74.56;;
18377;Laerm;9315;52.624;13.544;2023-09-12T01:58:40;56.84;40.80;73.48;;
18377;Laerm;9315;52.624;13.544;2023-09-12T02:01:08;57.61;43.36;70.71;;
18377;Laerm;9315;52.624;13.544;2023-09-12T02:03:35;61.45;38.42;77.35;;
18377;Laerm;9315;52.624;13.544;2023-09-12T02:06:03;57.86;35.90;73.84;;
18377;Laerm;9315;52.624;13.544;2023-09-12T02:08:30;56.58;36.63;71.98;;
18377;Laerm;9315;52.624;13.544;2023-09-12T02:10:57;61.03;39.11;76.27;;
18377;Laerm;9315;52.624;13.544;2023-09-12T02:13:24;55.55;36.89;71.65;;
18377;Laerm;9315;52.624;13.544;2023-09-12T02:16:00;57.33;38.36;70.62;;
18377;Laerm;9315;52.624;13.544;2023-09-12T02:18:27;62.75;41.64;76.30;;
18377;Laerm;9315;52.624;13.544;2023-09-12T02:20:54;43.08;36.68;48.93;;
18377;Laerm;9315;52.624;13.544;2023-09-12T02:23:22;60.39;37.73;77.81;;
18377;Laerm;9315;52.624;13.544;2023-09-12T02:25:49;60.08;39.78;75.42;;
18377;Laerm;9315;52.624;13.544;2023-09-12T02:28:16;59.10;37.36;73.98;;
18377;Laerm;9315;52.624;13.544;2023-09-12T02:30:44;62.08;38.93;76.52;;
18377;Laerm;9315;52.624;13.544;2023-09-12T02:33:14;62.90;40.63;75.48;;
18377;Laerm;9315;52.624;13.544;2023-09-12T02:35:41;62.10;43.26;75.51;;
18377;Laerm;9315;52.624;13.544;2023-09-12T02:38:09;62.98;43.06;77.21;;
18377;Laerm;9315;52.624;13.544;2023-09-12T02:40:36;62.08;40.12;76.34;;
18377;Laerm;9315;52.624;13.544;2023-09-12T02:43:04;64.00;41.95;78.87;;
18377;Laerm;9315;52.624;13.544;2023-09-12T02:45:31;58.76;40.57;73.47;;
18377;Laerm;9315;52.624;13.544;2023-09-12T02:47:58;63.89;41.23;76.87;;
18377;Laerm;9315;52.624;13.544;2023-09-12T02:50:25;62.59;44.82;79.45;;
18377;Laerm;9315;52.624;13.544;2023-09-12T02:52:52;60.94;41.47;72.47;;
18377;Laerm;9315;52.624;13.544;2023-09-12T02:55:19;61.00;43.10;74.58;;
18377;Laerm;9315;52.624;13.544;2023-09-12T02:57:47;62.26;43.08;73.34;;
18377;Laerm;9315;52.624;13.544;2023-09-12T03:00:14;64.58;45.12;78.66;;
18377;Laerm;9315;52.624;13.544;2023-09-12T03:02:41;63.82;47.94;79.99;;
18377;Laerm;9315;52.624;13.544;2023-09-12T03:05:09;64.33;45.83;76.06;;
18377;Laerm;9315;52.624;13.544;2023-09-12T03:07:36;64.95;47.56;77.02;;
18377;Laerm;9315;52.624;13.544;2023-09-12T03:10:04;65.14;47.40;77.50;;
18377;Laerm;9315;52.624;13.544;2023-09-12T03:12:35;66.28;46.75;78.55;;
18377;Laerm;9315;52.624;13.544;2023-09-12T03:15:03;66.08;48.72;76.38;;
18377;Laerm;9315;52.624;13.544;2023-09-12T03:17:32;66.62;48.08;76.46;;
18377;Laerm;9315;52.624;13.544;2023-09-12T03:19:59;66.18;50.64;75.03;;
18377;Laerm;9315;52.624;13.544;2023-09-12T03:22:27;66.57;45.89;75.55;;
18377;Laerm;9315;52.624;13.544;2023-09-12T03:24:54;66.36;47.06;76.06;;
18377;Laerm;9315;52.624;13.544;2023-09-12T03:27:21;67.23;47.54;83.10;;
18377;Laerm;9315;52.624;13.544;2023-09-12T03:29:48;64.49;46.97;77.88;;
18377;Laerm;9315;52.624;13.544;2023-09-12T03:32:15;69.22;48.52;84.22;;
18377;Laerm;9315;52.624;13.544;2023-09-12T03:34:43;65.59;50.31;76.01;;
18377;Laerm;9315;52.624;13.544;2023-09-12T03:37:10;66.16;49.30;78.03;;
18377;Laerm;9315;52.624;13.544;2023-09-12T03:39:37;65.26;47.82;74.25;;
18377;Laerm;9315;52.624;13.544;2023-09-12T03:42:04;66.31;50.07;77.10;;
18377;Laerm;9315;52.624;13.544;2023-09-12T03:44:33;66.70;48.55;78.21;;
18377;Laerm;9315;52.624;13.544;2023-09-12T03:47:00;65.34;48.41;73.85;;
18377;Laerm;9315;52.624;13.544;2023-09-12T03:49:27;65.45;48.35;75.71;;
18377;Laerm;9315;52.624;13.544;2023-09-12T03:51:55;67.71;48.93;79.13;;
18377;Laerm;9315;52.624;13.544;2023-09-12T03:54:22;65.13;49.78;79.78;;
18377;Laerm;9315;52.624;13.544;2023-09-12T03:56:53;66.01;47.11;76.74;;
18377;Laerm;9315;52.624;13.544;2023-09-12T03:59:23;66.15;48.76;77.34;;
18377;Laerm;9315;52.624;13.544;2023-09-12T04:01:50;67.92;49.14;82.07;;
18377;Laerm;9315;52.624;13.544;2023-09-12T04:04:17;67.69;48.88;79.95;;
18377;Laerm;9315;52.624;13.544;2023-09-12T04:06:44;66.40;49.20;77.13;;
18377;Laerm;9315;52.624;13.544;2023-09-12T04:09:12;65.10;47.66;78.13;;
18377;Laerm;9315;52.624;13.544;2023-09-12T04:11:39;70.17;55.02;80.11;;
18377;Laerm;9315;52.624;13.544;2023-09-12T04:14:14;67.48;51.10;76.32;;
18377;Laerm;9315;52.624;13.544;2023-09-12T04:16:42;68.60;50.19;80.54;;
18377;Laerm;9315;52.624;13.544;2023-09-12T04:19:09;67.15;51.15;76.70;;
18377;Laerm;9315;52.624;13.544;2023-09-12T04:21:36;68.48;50.30;77.18;;
18377;Laerm;9315;52.624;13.544;2023-09-12T04:24:04;68.79;51.56;79.60;;
18377;Laerm;9315;52.624;13.544;2023-09-12T04:26:31;68.72;49.98;80.12;;
18377;Laerm;9315;52.624;13.544;2023-09-12T04:29:00;68.07;51.86;76.67;;
18377;Laerm;9315;52.624;13.544;2023-09-12T04:31:28;69.00;51.78;80.57;;
18377;Laerm;9315;52.624;13.544;2023-09-12T04:33:56;70.96;51.64;79.77;;
18377;Laerm;9315;52.624;13.544;2023-09-12T04:36:24;67.82;51.25;77.47;;
18377;Laerm;9315;52.624;13.544;2023-09-12T04:38:51;68.54;51.97;77.46;;
18377;Laerm;9315;52.624;13.544;2023-09-12T04:41:18;68.70;50.29;76.65;;
18377;Laerm;9315;52.624;13.544;2023-09-12T04:43:48;69.83;54.42;78.21;;
18377;Laerm;9315;52.624;13.544;2023-09-12T04:46:15;68.29;52.77;78.88;;
18377;Laerm;9315;52.624;13.544;2023-09-12T04:48:43;69.21;50.74;81.92;;
18377;Laerm;9315;52.624;13.544;2023-09-12T04:51:11;69.93;52.44;80.44;;
18377;Laerm;9315;52.624;13.544;2023-09-12T04:53:38;68.76;51.00;78.07;;
18377;Laerm;9315;52.624;13.544;2023-09-12T04:56:07;68.53;52.82;77.30;;
18377;Laerm;9315;52.624;13.544;2023-09-12T04:58:36;68.29;51.86;79.95;;
18377;Laerm;9315;52.624;13.544;2023-09-12T05:01:04;72.82;57.49;86.20;;
18377;Laerm;9315;52.624;13.544;2023-09-12T05:03:31;70.55;52.48;81.62;;
18377;Laerm;9315;52.624;13.544;2023-09-12T05:06:00;69.56;52.01;78.38;;
18377;Laerm;9315;52.624;13.544;2023-09-12T05:08:27;68.42;51.16;81.32;;
18377;Laerm;9315;52.624;13.544;2023-09-12T05:10:56;68.65;54.31;77.80;;
18377;Laerm;9315;52.624;13.544;2023-09-12T05:13:23;70.37;54.40;81.47;;
18377;Laerm;9315;52.624;13.544;2023-09-12T05:15:50;70.03;53.25;80.57;;
18377;Laerm;9315;52.624;13.544;2023-09-12T05:18:17;68.27;52.91;78.95;;
18377;Laerm;9315;52.624;13.544;2023-09-12T05:20:45;71.66;58.91;90.77;;
18377;Laerm;9315;52.624;13.544;2023-09-12T05:23:14;71.84;57.17;88.12;;
18377;Laerm;9315;52.624;13.544;2023-09-12T05:25:41;68.19;52.67;77.96;;
18377;Laerm;9315;52.624;13.544;2023-09-12T05:28:08;69.07;52.09;83.36;;
18377;Laerm;9315;52.624;13.544;2023-09-12T05:30:35;72.61;55.14;86.03;;
18377;Laerm;9315;52.624;13.544;2023-09-12T05:33:03;68.36;53.14;78.92;;
18377;Laerm;9315;52.624;13.544;2023-09-12T05:35:30;71.09;55.91;83.09;;
18377;Laerm;9315;52.624;13.544;2023-09-12T05:37:58;69.39;53.48;78.63;;
18377;Laerm;9315;52.624;13.544;2023-09-12T05:40:25;67.79;52.12;77.56;;
18377;Laerm;9315;52.624;13.544;2023-09-12T05:42:52;68.83;52.20;78.18;;
18377;Laerm;9315;52.624;13.544;2023-09-12T05:45:20;67.88;52.16;77.35;;
18377;Laerm;9315;52.624;13.544;2023-09-12T05:47:47;67.20;50.86;77.92;;
18377;Laerm;9315;52.624;13.544;2023-09-12T05:50:15;68.56;53.79;78.97;;
18377;Laerm;9315;52.624;13.544;2023-09-12T05:52:42;69.79;52.12;81.73;;
18377;Laerm;9315;52.624;13.544;2023-09-12T05:55:15;70.52;54.00;83.84;;
18377;Laerm;9315;52.624;13.544;2023-09-12T05:57:43;67.78;53.52;76.18;;
18377;Laerm;9315;52.624;13.544;2023-09-12T06:00:12;69.59;57.05;84.14;;
18377;Laerm;9315;52.624;13.544;2023-09-12T06:02:39;68.12;53.38;79.31;;
18377;Laerm;9315;52.624;13.544;2023-09-12T06:05:07;70.58;52.83;85.36;;
18377;Laerm;9315;52.624;13.544;2023-09-12T06:07:34;68.50;52.32;79.18;;
18377;Laerm;9315;52.624;13.544;2023-09-12T06:10:02;69.39;53.84;79.59;;
18377;Laerm;9315;52.624;13.544;2023-09-12T06:12:30;69.36;54.07;81.37;;
18377;Laerm;9315;52.624;13.544;2023-09-12T06:15:00;68.11;54.65;77.53;;
18377;Laerm;9315;52.624;13.544;2023-09-12T06:17:27;68.50;52.22;83.30;;
18377;Laerm;9315;52.624;13.544;2023-09-12T06:19:55;69.23;53.85;81.56;;
18377;Laerm;9315;52.624;13.544;2023-09-12T06:22:22;67.47;52.25;78.58;;
18377;Laerm;9315;52.624;13.544;2023-09-12T06:24:51;67.99;52.80;78.66;;
18377;Laerm;9315;52.624;13.544;2023-09-12T06:27:18;68.57;52.38;76.88;;
18377;Laerm;9315;52.624;13.544;2023-09-12T06:29:47;67.44;51.42;78.28;;
18377;Laerm;9315;52.624;13.544;2023-09-12T06:32:19;66.94;52.11;77.92;;
18377;Laerm;9315;52.624;13.544;2023-09-12T06:34:46;65.39;50.76;75.48;;
18377;Laerm;9315;52.624;13.544;2023-09-12T06:37:14;69.10;52.56;80.04;;
18377;Laerm;9315;52.624;13.544;2023-09-12T06:39:41;68.44;51.22;79.38;;
18377;Laerm;9315;52.624;13.544;2023-09-12T06:42:09;67.38;51.32;82.59;;
18377;Laerm;9315;52.624;13.544;2023-09-12T06:44:37;70.29;52.18;86.81;;
18377;Laerm;9315;52.624;13.544;2023-09-12T06:47:05;69.32;50.02;80.02;;
18377;Laerm;9315;52.624;13.544;2023-09-12T06:49:32;67.30;49.19;76.25;;
18377;Laerm;9315;52.624;13.544;2023-09-12T06:52:02;66.04;47.34;75.61;;
18377;Laerm;9315;52.624;13.544;2023-09-12T06:54:29;68.43;49.97;81.29;;
18377;Laerm;9315;52.624;13.544;2023-09-12T06:56:57;68.43;52.01;76.14;;
18377;Laerm;9315;52.624;13.544;2023-09-12T06:59:24;67.91;49.00;77.56;;
18377;Laerm;9315;52.624;13.544;2023-09-12T07:01:51;67.28;48.43;75.73;;
18377;Laerm;9315;52.624;13.544;2023-09-12T07:04:18;67.56;45.01;80.59;;
18377;Laerm;9315;52.624;13.544;2023-09-12T07:06:45;67.31;45.73;76.26;;
18377;Laerm;9315;52.624;13.544;2023-09-12T07:09:13;67.90;45.75;77.39;;
18377;Laerm;9315;52.624;13.544;2023-09-12T07:11:42;68.84;47.40;75.51;;
18377;Laerm;9315;52.624;13.544;2023-09-12T07:14:10;66.35;46.59;74.25;;
18377;Laerm;9315;52.624;13.544;2023-09-12T07:16:37;68.34;49.45;77.93;;
18377;Laerm;9315;52.624;13.544;2023-09-12T07:19:04;70.32;52.99;86.37;;
18377;Laerm;9315;52.624;13.544;2023-09-12T07:21:32;68.26;47.27;78.66;;
18377;Laerm;9315;52.624;13.544;2023-09-12T07:24:00;69.11;44.63;80.57;;
18377;Laerm;9315;52.624;13.544;2023-09-12T07:26:27;66.50;43.62;77.30;;
18377;Laerm;9315;52.624;13.544;2023-09-12T07:28:55;68.18;43.60;79.00;;
18377;Laerm;9315;52.624;13.544;2023-09-12T07:31:22;68.29;44.79;78.24;;
18377;Laerm;9315;52.624;13.544;2023-09-12T07:33:49;68.42;44.23;78.85;;
18377;Laerm;9315;52.624;13.544;2023-09-12T07:36:20;65.87;41.56;75.94;;
18377;Laerm;9315;52.624;13.544;2023-09-12T07:38:47;68.01;41.30;76.36;;
18377;Laerm;9315;52.624;13.544;2023-09-12T07:41:17;67.81;46.12;82.54;;
18377;Laerm;9315;52.624;13.544;2023-09-12T07:43:46;67.67;44.12;74.91;;
18377;Laerm;9315;52.624;13.544;2023-09-12T07:46:13;68.12;44.17;78.56;;
18377;Laerm;9315;52.624;13.544;2023-09-12T07:48:40;66.59;40.02;81.81;;
18377;Laerm;9315;52.624;13.544;2023-09-12T07:51:15;66.23;42.69;80.91;;
18377;Laerm;9315;52.624;13.544;2023-09-12T07:53:45;67.17;42.78;76.34;;
18377;Laerm;9315;52.624;13.544;2023-09-12T07:56:12;68.38;42.87;77.49;;
18377;Laerm;9315;52.624;13.544;2023-09-12T07:58:40;66.91;41.82;76.99;;
18377;Laerm;9315;52.624;13.544;2023-09-12T08:01:08;66.97;40.41;76.52;;
18377;Laerm;9315;52.624;13.544;2023-09-12T08:03:39;67.12;41.19;78.97;;
18377;Laerm;9315;52.624;13.544;2023-09-12T08:06:07;67.56;41.63;76.04;;
18377;Laerm;9315;52.624;13.544;2023-09-12T08:08:35;67.82;46.64;78.97;;
18377;Laerm;9315;52.624;13.544;2023-09-12T08:11:02;66.70;41.40;77.20;;
18377;Laerm;9315;52.624;13.544;2023-09-12T08:13:30;69.68;39.00;82.35;;
18377;Laerm;9315;52.624;13.544;2023-09-12T08:16:00;69.04;45.82;80.10;;
18377;Laerm;9315;52.624;13.544;2023-09-12T08:18:30;68.35;42.28;81.03;;
18377;Laerm;9315;52.624;13.544;2023-09-12T08:20:58;68.30;42.85;80.84;;
18377;Laerm;9315;52.624;13.544;2023-09-12T08:23:25;68.11;41.98;79.92;;
18377;Laerm;9315;52.624;13.544;2023-09-12T08:25:56;68.88;45.98;79.69;;
18377;Laerm;9315;52.624;13.544;2023-09-12T08:28:23;67.19;37.04;80.40;;
18377;Laerm;9315;52.624;13.544;2023-09-12T08:30:55;67.34;40.46;77.75;;
18377;Laerm;9315;52.624;13.544;2023-09-12T08:33:22;65.94;39.69;76.50;;
18377;Laerm;9315;52.624;13.544;2023-09-12T08:35:52;83.41;47.54;105.74;;
18377;Laerm;9315;52.624;13.544;2023-09-12T08:38:19;66.05;42.57;77.06;;
18377;Laerm;9315;52.624;13.544;2023-09-12T08:40:51;67.11;41.79;86.49;;
18377;Laerm;9315;52.624;13.544;2023-09-12T08:43:20;68.56;40.88;84.14;;
18377;Laerm;9315;52.624;13.544;2023-09-12T08:45:48;65.56;45.01;75.19;;
18377;Laerm;9315;52.624;13.544;2023-09-12T08:48:16;68.99;43.92;80.67;;
18377;Laerm;9315;52.624;13.544;2023-09-12T08:50:48;65.90;39.43;76.05;;
18377;Laerm;9315;52.624;13.544;2023-09-12T08:53:16;65.28;36.95;79.97;;
18377;Laerm;9315;52.624;13.544;2023-09-12T08:55:46;69.02;45.07;78.91;;
18377;Laerm;9315;52.624;13.544;2023-09-12T08:58:14;68.19;42.14;79.56;;
18377;Laerm;9315;52.624;13.544;2023-09-12T09:00:43;67.46;41.23;82.17;;
18377;Laerm;9315;52.624;13.544;2023-09-12T09:03:11;67.10;37.35;79.72;;
18377;Laerm;9315;52.624;13.544;2023-09-12T09:05:40;67.81;37.04;79.40;;
18377;Laerm;9315;52.624;13.544;2023-09-12T09:08:11;66.85;39.56;75.71;;
18377;Laerm;9315;52.624;13.544;2023-09-12T09:10:39;66.65;37.52;80.02;;
18377;Laerm;9315;52.624;13.544;2023-09-12T09:13:21;63.46;41.60;73.48;;
18377;Laerm;9315;52.624;13.544;2023-09-12T09:15:48;67.74;43.97;78.78;;
18377;Laerm;9315;52.624;13.544;2023-09-12T09:18:15;67.64;38.23;77.47;;
18377;Laerm;9315;52.624;13.544;2023-09-12T09:20:42;66.64;40.07;76.69;;
18377;Laerm;9315;52.624;13.544;2023-09-12T09:23:12;67.70;37.32;76.86;;
18377;Laerm;9315;52.624;13.544;2023-09-12T09:25:43;69.16;48.46;78.88;;
18377;Laerm;9315;52.624;13.544;2023-09-12T09:28:21;65.38;36.24;76.98;;
18377;Laerm;9315;52.624;13.544;2023-09-12T09:30:51;66.82;40.76;80.20;;
18377;Laerm;9315;52.624;13.544;2023-09-12T09:33:21;67.79;44.76;77.67;;
18377;Laerm;9315;52.624;13.544;2023-09-12T09:35:49;66.81;42.67;80.22;;
18377;Laerm;9315;52.624;13.544;2023-09-12T09:38:19;66.70;42.10;78.74;;
18377;Laerm;9315;52.624;13.544;2023-09-12T09:40:47;67.84;41.85;76.95;;
18377;Laerm;9315;52.624;13.544;2023-09-12T09:43:21;68.04;43.13;75.89;;
18377;Laerm;9315;52.624;13.544;2023-09-12T09:45:49;69.16;48.12;79.29;;
18377;Laerm;9315;52.624;13.544;2023-09-12T09:48:22;67.59;46.75;75.83;;
18377;Laerm;9315;52.624;13.544;2023-09-12T09:50:50;68.53;43.27;79.82;;
18377;Laerm;9315;52.624;13.544;2023-09-12T09:53:32;67.63;45.87;80.34;;
18377;Laerm;9315;52.624;13.544;2023-09-12T09:56:13;67.65;40.85;78.25;;
18377;Laerm;9315;52.624;13.544;2023-09-12T09:58:56;66.65;44.74;77.17;;
18377;Laerm;9315;52.624;13.544;2023-09-12T10:01:29;67.59;47.26;76.07;;
18377;Laerm;9315;52.624;13.544;2023-09-12T10:04:00;67.99;44.59;77.53;;
18377;Laerm;9315;52.624;13.544;2023-09-12T10:06:29;69.50;47.74;83.56;;
18377;Laerm;9315;52.624;13.544;2023-09-12T10:08:58;66.62;46.54;77.85;;
18377;Laerm;9315;52.624;13.544;2023-09-12T10:11:28;67.57;47.81;78.07;;
18377;Laerm;9315;52.624;13.544;2023-09-12T10:14:03;66.92;47.68;79.36;;
18377;Laerm;9315;52.624;13.544;2023-09-12T10:16:36;66.30;42.52;75.78;;
18377;Laerm;9315;52.624;13.544;2023-09-12T10:22:20;67.52;45.08;76.39;;
18377;Laerm;9315;52.624;13.544;2023-09-12T10:24:50;67.00;44.49;75.09;;
18377;Laerm;9315;52.624;13.544;2023-09-12T10:27:19;66.27;43.06;82.06;;
18377;Laerm;9315;52.624;13.544;2023-09-12T10:29:48;66.73;45.65;76.18;;
18377;Laerm;9315;52.624;13.544;2023-09-12T10:32:17;68.83;40.18;80.97;;
18377;Laerm;9315;52.624;13.544;2023-09-12T10:34:46;68.24;43.84;79.68;;
18377;Laerm;9315;52.624;13.544;2023-09-12T10:37:20;65.14;41.32;75.49;;
18377;Laerm;9315;52.624;13.544;2023-09-12T10:39:49;68.10;43.60;81.88;;
18377;Laerm;9315;52.624;13.544;2023-09-12T10:42:20;71.19;43.54;91.32;;
18377;Laerm;9315;52.624;13.544;2023-09-12T10:44:50;68.16;43.52;76.36;;
18377;Laerm;9315;52.624;13.544;2023-09-12T10:47:19;67.94;46.16;80.62;;
18377;Laerm;9315;52.624;13.544;2023-09-12T10:49:53;68.03;39.84;78.71;;
18377;Laerm;9315;52.624;13.544;2023-09-12T10:52:28;66.30;42.62;83.88;;
18377;Laerm;9315;52.624;13.544;2023-09-12T10:54:56;68.08;40.85;78.64;;
18377;Laerm;9315;52.624;13.544;2023-09-12T10:57:23;66.14;39.60;76.20;;
18377;Laerm;9315;52.624;13.544;2023-09-12T11:02:38;66.64;36.04;78.99;;
18377;Laerm;9315;52.624;13.544;2023-09-12T11:08:01;68.15;42.36;82.95;;
18377;Laerm;9315;52.624;13.544;2023-09-12T11:10:28;67.06;43.96;76.85;;
18377;Laerm;9315;52.624;13.544;2023-09-12T11:12:58;68.60;44.97;82.90;;
18377;Laerm;9315;52.624;13.544;2023-09-12T11:15:29;67.52;43.44;78.45;;
18377;Laerm;9315;52.624;13.544;2023-09-12T11:18:06;66.34;41.96;76.24;;
18377;Laerm;9315;52.624;13.544;2023-09-12T11:21:00;68.62;41.16;78.57;;
18377;Laerm;9315;52.624;13.544;2023-09-12T11:23:30;66.27;39.09;75.75;;
18377;Laerm;9315;52.624;13.544;2023-09-12T11:26:08;66.44;38.36;75.09;;
18377;Laerm;9315;52.624;13.544;2023-09-12T11:28:39;67.58;42.87;77.45;;
18377;Laerm;9315;52.624;13.544;2023-09-12T11:31:06;69.47;41.59;86.09;;
18377;Laerm;9315;52.624;13.544;2023-09-12T11:33:34;66.46;39.14;75.42;;
18377;Laerm;9315;52.624;13.544;2023-09-12T11:36:19;67.36;39.68;84.02;;
18377;Laerm;9315;52.624;13.544;2023-09-12T11:38:50;68.37;44.08;77.17;;
18377;Laerm;9315;52.624;13.544;2023-09-12T11:41:39;67.53;48.68;75.27;;
18377;Laerm;9315;52.624;13.544;2023-09-12T11:44:07;68.07;43.75;76.97;;
18377;Laerm;9315;52.624;13.544;2023-09-12T11:46:35;67.92;41.90;77.57;;
18377;Laerm;9315;52.624;13.544;2023-09-12T11:49:03;69.42;41.74;82.84;;
18377;Laerm;9315;52.624;13.544;2023-09-12T11:51:31;68.08;43.86;80.76;;
18377;Laerm;9315;52.624;13.544;2023-09-12T11:53:58;67.96;42.50;79.25;;
18377;Laerm;9315;52.624;13.544;2023-09-12T11:56:27;63.92;37.53;76.53;;
18377;Laerm;9315;52.624;13.544;2023-09-12T11:58:56;67.94;43.04;83.29;;
18377;Laerm;9315;52.624;13.544;2023-09-12T12:01:23;65.37;41.85;77.57;;
18377;Laerm;9315;52.624;13.544;2023-09-12T12:03:50;68.54;44.77;79.74;;
18377;Laerm;9315;52.624;13.544;2023-09-12T12:06:20;67.32;46.71;78.67;;
18377;Laerm;9315;52.624;13.544;2023-09-12T12:08:47;67.59;41.48;78.79;;
18377;Laerm;9315;52.624;13.544;2023-09-12T12:11:15;66.97;39.89;75.98;;
18377;Laerm;9315;52.624;13.544;2023-09-12T12:13:45;68.14;49.23;78.33;;
18377;Laerm;9315;52.624;13.544;2023-09-12T12:16:17;68.44;41.30;79.43;;
18377;Laerm;9315;52.624;13.544;2023-09-12T12:18:47;68.10;45.18;83.25;;
18377;Laerm;9315;52.624;13.544;2023-09-12T12:21:15;69.34;46.53;79.17;;
18377;Laerm;9315;52.624;13.544;2023-09-12T12:23:42;68.74;52.30;85.66;;
18377;Laerm;9315;52.624;13.544;2023-09-12T12:26:09;69.52;54.72;80.31;;
18377;Laerm;9315;52.624;13.544;2023-09-12T12:28:38;66.07;43.77;74.83;;
18377;Laerm;9315;52.624;13.544;2023-09-12T12:31:07;66.91;39.91;74.21;;
18377;Laerm;9315;52.624;13.544;2023-09-12T12:33:35;67.95;43.73;79.79;;
18377;Laerm;9315;52.624;13.544;2023-09-12T12:36:23;69.38;49.76;85.30;;
18377;Laerm;9315;52.624;13.544;2023-09-12T12:38:51;67.39;45.84;75.64;;
18377;Laerm;9315;52.624;13.544;2023-09-12T12:41:28;68.88;46.69;78.80;;
18377;Laerm;9315;52.624;13.544;2023-09-12T12:44:12;68.73;44.80;78.82;;
18377;Laerm;9315;52.624;13.544;2023-09-12T12:46:54;67.05;43.40;78.70;;
18377;Laerm;9315;52.624;13.544;2023-09-12T12:49:22;67.46;46.88;77.32;;
18377;Laerm;9315;52.624;13.544;2023-09-12T12:51:50;68.49;42.58;81.22;;
18377;Laerm;9315;52.624;13.544;2023-09-12T12:54:21;67.17;44.58;77.90;;
18377;Laerm;9315;52.624;13.544;2023-09-12T12:56:48;68.83;40.46;81.56;;
18377;Laerm;9315;52.624;13.544;2023-09-12T12:59:15;68.80;46.65;84.02;;
18377;Laerm;9315;52.624;13.544;2023-09-12T13:01:44;67.90;40.16;76.39;;
18377;Laerm;9315;52.624;13.544;2023-09-12T13:04:12;66.70;39.17;77.81;;
18377;Laerm;9315;52.624;13.544;2023-09-12T13:06:39;67.66;43.15;77.72;;
18377;Laerm;9315;52.624;13.544;2023-09-12T13:09:09;67.25;38.21;76.94;;
18377;Laerm;9315;52.624;13.544;2023-09-12T13:11:38;69.34;46.14;80.30;;
18377;Laerm;9315;52.624;13.544;2023-09-12T13:14:05;67.29;39.43;75.89;;
18377;Laerm;9315;52.624;13.544;2023-09-12T13:16:37;67.93;46.41;77.04;;
18377;Laerm;9315;52.624;13.544;2023-09-12T13:19:09;67.33;44.03;78.52;;
18377;Laerm;9315;52.624;13.544;2023-09-12T13:21:38;69.01;45.22;78.87;;
18377;Laerm;9315;52.624;13.544;2023-09-12T13:24:06;68.27;42.06;77.07;;
18377;Laerm;9315;52.624;13.544;2023-09-12T13:26:34;68.68;45.57;76.99;;
18377;Laerm;9315;52.624;13.544;2023-09-12T13:29:01;67.90;43.78;76.66;;
18377;Laerm;9315;52.624;13.544;2023-09-12T13:31:28;67.20;41.38;76.25;;
18377;Laerm;9315;52.624;13.544;2023-09-12T13:33:55;68.87;47.00;75.96;;
18377;Laerm;9315;52.624;13.544;2023-09-12T13:36:23;68.69;48.15;79.53;;
18377;Laerm;9315;52.624;13.544;2023-09-12T13:38:53;68.24;49.30;74.82;;
18377;Laerm;9315;52.624;13.544;2023-09-12T13:41:21;67.42;44.90;75.24;;
18377;Laerm;9315;52.624;13.544;2023-09-12T13:43:50;67.45;45.13;81.49;;
18377;Laerm;9315;52.624;13.544;2023-09-12T13:46:17;66.61;41.65;77.50;;
18377;Laerm;9315;52.624;13.544;2023-09-12T13:48:44;68.54;40.10;79.61;;
18377;Laerm;9315;52.624;13.544;2023-09-12T13:51:15;67.53;42.53;76.64;;
18377;Laerm;9315;52.624;13.544;2023-09-12T13:53:42;68.68;42.43;78.70;;
18377;Laerm;9315;52.624;13.544;2023-09-12T13:56:10;67.19;46.32;75.95;;
18377;Laerm;9315;52.624;13.544;2023-09-12T13:58:41;68.24;40.50;78.19;;
18377;Laerm;9315;52.624;13.544;2023-09-12T14:01:17;67.63;47.18;79.34;;
18377;Laerm;9315;52.624;13.544;2023-09-12T14:04:00;68.53;42.79;80.31;;
18377;Laerm;9315;52.624;13.544;2023-09-12T14:06:29;67.15;43.04;77.86;;
18377;Laerm;9315;52.624;13.544;2023-09-12T14:08:57;67.42;42.58;76.64;;